Impacts TAF Board
For situational awareness. Not to be used for flight planning purposes.
IDs:

KBGR - Bangor Intl Arpt, ME, US

Issued at 1720 UTC 01 Feb 2023
Updated at 2132 UTC 01 Feb 2023
Potential Impact None Slight Moderate High
Time2053Z 01/22Z 01/23Z 02/00Z 02/01Z 02/02Z 02/03Z 02/04Z 02/05Z 02/06Z 02/07Z 02/08Z 02/09Z 02/10Z>>
Type OBS PRVL PRVL PRVL PRVL PRVL PRVL PRVL PRVL PRVL PRVL PRVL PRVL PRVL
VIS 10 >6 >6 >6 >6 >6 >6 >6 >6 >6 >6 >6 >6 >6
CIG -- -- -- -- -- -- -- -- -- -- -- -- -- --
Cover SCT FEW FEW FEW FEW FEW FEW FEW FEW FEW FEW FEW FEW FEW
FltCat VFR VFR VFR VFR VFR VFR VFR VFR VFR VFR VFR VFR VFR VFR
WX -- -- -- -- -- -- -- -- -- -- -- -- -- --
WDir 110 VRB VRB VRB VRB VRB VRB VRB VRB VRB VRB VRB VRB VRB
WSpd 4 2 2 2 2 2 2 2 2 2 2 2 2 2
WGst -- -- -- -- -- -- -- -- -- -- -- -- -- --
WSHgt -- -- -- -- -- -- -- -- -- -- -- -- -- --
WSDir -- -- -- -- -- -- -- -- -- -- -- -- -- --
WSSpd -- -- -- -- -- -- -- -- -- -- -- -- -- --

NOTE: LAMP data beyond the time of the TAF data is denoted as LAMP in Type and colored magenta.

Raw TAF
KBGR 011720Z 0118/0218 VRB02KT P6SM FEW150
  FM021200 22004KT P6SM SCT120


Raw METAR
KBGR 012053Z 11004KT 10SM SCT120 M09/M19 A3018 RMK AO2 SLP226 T10891189 56012 $
KBGR 011953Z 00000KT 10SM SCT120 M07/M18 A3019 RMK AO2 SLP230 T10721183 $
KBGR 011853Z 00000KT 10SM SCT120 M07/M18 A3020 RMK AO2 SLP231 T10721183 $

METAR Board
Radar Display
Forecast Discussion

For situational awareness. Not to be used for flight planning purposes.